If you wish to contribute or participate in the discussions about articles you are invited to join SKYbrary as a registered user

 Actions

Fort Yukon Airport

From SKYbrary Wiki

PFYU
Airport
ICAO: PFYU – IATA: FYU
Summary
Name Fort Yukon Airport
Region North America
Territory
Location , Alaska
Serving Fort Yukon
Elevation 131.978 m
433 ft
433 ft131.978 m
Type medium airport
Coordinates 66° 34' 17.37" N, 145° 15' 1.50" W
Runways
Designator Length Width Surface ROPS
4/22 1771 m5,810.367 ft
46 m150.919 ft
GRVL-G /


METAR
Observation PFYU 140609Z AUTO 00000KT 10SM BKN022 M09/M12 A3020 RMK AO2 FZRANO
Station Fort Yukon, Fort Yukon Airport
Date/Time 14 October 2019 06:09:00
Wind direction
Wind speed 00 kts
Lowest cloud amount broken clouds
Temperature
Dew point
Humidity 78%
QNH hPa
Weather condition n/a